createdAt,value
2019-03-15T00:01:29.636Z,8.50
2019-03-15T00:03:58.034Z,8.50
2019-03-15T00:06:26.402Z,8.50
2019-03-15T00:08:54.791Z,8.50
2019-03-15T00:11:23.164Z,8.50
2019-03-15T00:13:51.582Z,8.50
2019-03-15T00:16:20.222Z,8.50
2019-03-15T00:18:48.650Z,8.50
2019-03-15T00:21:17.058Z,8.50
2019-03-15T00:23:45.491Z,8.50
2019-03-15T00:26:13.899Z,8.50
2019-03-15T00:28:42.307Z,8.50
2019-03-15T00:31:10.683Z,8.60
2019-03-15T00:33:39.093Z,8.60
2019-03-15T00:36:07.463Z,8.60
2019-03-15T00:38:35.837Z,8.70
2019-03-15T00:41:04.245Z,8.70
2019-03-15T00:43:32.622Z,8.70
2019-03-15T00:46:01.026Z,8.80
2019-03-15T00:48:29.403Z,8.80
2019-03-15T00:50:57.795Z,8.90
2019-03-15T00:53:26.155Z,9.00
2019-03-15T00:55:54.561Z,9.00
2019-03-15T00:58:22.989Z,9.10
2019-03-15T01:00:51.358Z,9.10
2019-03-15T01:03:19.761Z,9.20
2019-03-15T01:05:48.162Z,9.20
2019-03-15T01:08:16.545Z,9.20
2019-03-15T01:10:44.993Z,9.30
2019-03-15T01:13:13.394Z,9.30
2019-03-15T01:15:41.870Z,9.30
2019-03-15T01:18:10.270Z,9.30
2019-03-15T01:20:38.641Z,9.30
2019-03-15T01:23:07.085Z,9.30
2019-03-15T01:25:35.459Z,9.30
2019-03-15T01:28:03.838Z,9.30
2019-03-15T01:30:32.248Z,9.30
2019-03-15T01:33:00.625Z,9.40
2019-03-15T01:35:29.026Z,9.30
2019-03-15T01:37:57.394Z,9.40
2019-03-15T01:40:25.789Z,9.40
2019-03-15T01:42:54.169Z,9.40
2019-03-15T01:45:22.593Z,9.30
2019-03-15T01:47:50.979Z,9.30
2019-03-15T01:50:19.373Z,9.30
2019-03-15T01:52:47.753Z,9.30
2019-03-15T01:55:16.135Z,9.30
2019-03-15T01:57:44.530Z,9.30
2019-03-15T02:00:13.401Z,9.30
2019-03-15T02:02:41.833Z,9.30
2019-03-15T02:05:10.234Z,9.30
2019-03-15T02:07:38.680Z,9.30
2019-03-15T02:10:08.327Z,9.40
2019-03-15T02:12:36.754Z,9.40
2019-03-15T02:15:08.790Z,9.40
2019-03-15T02:17:37.249Z,9.40
2019-03-15T02:20:07.190Z,9.50
2019-03-15T02:22:35.587Z,9.50
2019-03-15T02:25:03.982Z,9.60
2019-03-15T02:27:32.393Z,9.60
2019-03-15T02:30:00.881Z,9.60
2019-03-15T02:32:29.247Z,9.60
2019-03-15T02:34:57.637Z,9.60
2019-03-15T02:37:26.058Z,9.60
2019-03-15T02:39:54.436Z,9.60
2019-03-15T02:42:22.828Z,9.60
2019-03-15T02:44:51.209Z,9.60
2019-03-15T02:47:19.840Z,9.60
2019-03-15T02:49:48.294Z,9.60
2019-03-15T02:52:16.714Z,9.60
2019-03-15T02:54:45.112Z,9.70
2019-03-15T02:57:13.475Z,9.60
2019-03-15T02:59:41.856Z,9.70
2019-03-15T03:02:10.277Z,9.60
2019-03-15T03:04:38.669Z,9.60
2019-03-15T03:07:07.074Z,9.60
2019-03-15T03:09:35.473Z,9.60
2019-03-15T03:12:04.117Z,9.50
2019-03-15T03:14:32.589Z,9.60
2019-03-15T03:17:01.926Z,9.50
2019-03-15T03:19:30.428Z,9.50
2019-03-15T03:21:58.809Z,9.50
2019-03-15T03:24:27.227Z,9.40
2019-03-15T03:26:55.601Z,9.40
2019-03-15T03:29:24.010Z,9.30
2019-03-15T03:31:52.396Z,9.30
2019-03-15T03:34:20.808Z,9.30
2019-03-15T03:36:49.192Z,9.20
2019-03-15T03:39:17.599Z,9.20
2019-03-15T03:41:46.004Z,9.20
2019-03-15T03:44:14.387Z,9.20
2019-03-15T03:46:42.786Z,9.20
2019-03-15T03:49:11.182Z,9.20
2019-03-15T03:51:39.579Z,9.10
2019-03-15T03:54:08.025Z,9.10
2019-03-15T03:56:36.441Z,9.10
2019-03-15T03:59:04.822Z,9.00
2019-03-15T04:01:33.231Z,9.00
2019-03-15T04:04:01.671Z,9.00
2019-03-15T04:06:30.089Z,8.90
2019-03-15T04:09:00.134Z,8.90
2019-03-15T04:11:28.601Z,8.90
2019-03-15T04:13:57.003Z,8.90
2019-03-15T04:16:25.405Z,8.90
2019-03-15T04:18:53.802Z,8.80
2019-03-15T04:21:24.882Z,8.90
2019-03-15T04:23:53.261Z,8.80
2019-03-15T04:26:21.690Z,8.80
2019-03-15T04:28:50.051Z,8.80
2019-03-15T04:31:18.463Z,8.80
2019-03-15T04:33:46.998Z,8.80
2019-03-15T04:36:15.530Z,8.80
2019-03-15T04:38:43.948Z,8.70
2019-03-15T04:41:12.356Z,8.70
2019-03-15T04:43:40.758Z,8.70
2019-03-15T04:46:09.127Z,8.70
2019-03-15T04:48:37.524Z,8.70
2019-03-15T04:51:05.915Z,8.70
2019-03-15T04:53:34.324Z,8.70
2019-03-15T04:56:04.520Z,8.70
2019-03-15T04:58:32.922Z,8.70
2019-03-15T05:01:01.316Z,8.70
2019-03-15T05:03:29.725Z,8.60
2019-03-15T05:06:03.469Z,8.60
2019-03-15T05:08:28.211Z,8.60
2019-03-15T05:10:56.621Z,8.60
2019-03-15T05:13:25.073Z,8.60
2019-03-15T05:15:53.456Z,8.70
2019-03-15T05:18:21.902Z,8.60
2019-03-15T05:20:50.318Z,8.60
2019-03-15T05:23:18.696Z,8.60
2019-03-15T05:25:47.103Z,8.70
2019-03-15T05:28:17.143Z,8.70
2019-03-15T05:30:45.544Z,8.70
2019-03-15T05:33:14.020Z,8.70
2019-03-15T05:35:42.438Z,8.70
2019-03-15T05:38:10.886Z,8.60
2019-03-15T05:40:39.344Z,8.60
2019-03-15T05:43:07.721Z,8.60
2019-03-15T05:45:36.111Z,8.60
2019-03-15T05:48:04.609Z,8.60
2019-03-15T05:50:33.015Z,8.60
2019-03-15T05:53:01.400Z,8.60
2019-03-15T05:55:29.823Z,8.60
2019-03-15T05:57:58.201Z,8.60
2019-03-15T06:00:26.659Z,8.70
2019-03-15T06:02:55.092Z,8.70
2019-03-15T06:05:23.498Z,8.60
2019-03-15T06:07:52.016Z,8.60
2019-03-15T06:10:20.435Z,8.60
2019-03-15T06:12:48.858Z,8.60
2019-03-15T06:15:17.235Z,8.60
2019-03-15T06:17:45.657Z,8.60
2019-03-15T06:20:14.061Z,8.70
2019-03-15T06:22:42.474Z,8.70
2019-03-15T06:25:11.314Z,8.70
2019-03-15T06:27:39.642Z,8.70
2019-03-15T06:30:14.875Z,8.70
2019-03-15T06:32:43.282Z,8.70
2019-03-15T06:35:11.694Z,8.80
2019-03-15T06:37:40.100Z,8.80
2019-03-15T06:40:13.134Z,8.80
2019-03-15T06:42:39.812Z,8.90
2019-03-15T06:45:10.752Z,9.00
2019-03-15T06:47:39.140Z,9.00
2019-03-15T06:50:08.284Z,9.00
2019-03-15T06:52:36.700Z,9.10
2019-03-15T06:55:07.368Z,9.10
2019-03-15T06:57:35.775Z,9.20
2019-03-15T07:00:06.508Z,9.30
2019-03-15T07:02:34.888Z,9.50
2019-03-15T07:05:03.471Z,9.70
2019-03-15T07:07:31.854Z,9.80
2019-03-15T07:10:00.418Z,9.90
2019-03-15T07:12:28.760Z,10.00
2019-03-15T07:14:57.162Z,10.10
2019-03-15T07:17:25.551Z,10.20
2019-03-15T07:19:54.584Z,10.20
2019-03-15T07:22:23.285Z,10.30
2019-03-15T07:24:51.665Z,10.40
2019-03-15T07:27:20.155Z,10.40
2019-03-15T07:29:48.548Z,10.50
2019-03-15T07:32:16.947Z,10.50
2019-03-15T07:34:45.352Z,10.60
2019-03-15T07:37:13.720Z,10.60
2019-03-15T07:39:42.123Z,10.60
2019-03-15T07:42:10.553Z,10.70
2019-03-15T07:44:38.988Z,10.70
2019-03-15T07:47:07.364Z,10.80
2019-03-15T07:49:37.452Z,10.80
2019-03-15T07:52:05.893Z,10.80
2019-03-15T07:54:38.266Z,10.90
2019-03-15T07:57:04.429Z,10.90
2019-03-15T07:59:33.400Z,11.00
2019-03-15T08:02:01.826Z,11.00
2019-03-15T08:04:30.211Z,11.10
2019-03-15T08:06:58.660Z,11.10
2019-03-15T08:09:27.054Z,11.20
2019-03-15T08:11:55.469Z,11.20
2019-03-15T08:14:23.972Z,11.20
2019-03-15T08:16:52.384Z,11.20
2019-03-15T08:19:20.793Z,11.20
2019-03-15T08:21:49.200Z,11.20
2019-03-15T08:24:17.616Z,11.30
2019-03-15T08:26:46.009Z,11.30
2019-03-15T08:29:14.429Z,11.40
2019-03-15T08:31:42.834Z,11.40
2019-03-15T08:34:11.219Z,11.40
2019-03-15T08:36:39.730Z,11.40
2019-03-15T08:39:08.181Z,11.40
2019-03-15T08:41:36.619Z,11.50
2019-03-15T08:44:05.014Z,11.50
2019-03-15T08:46:33.420Z,11.50
2019-03-15T08:49:03.952Z,11.60
2019-03-15T08:51:32.403Z,11.60
2019-03-15T08:54:00.808Z,11.60
2019-03-15T08:56:29.198Z,11.60
2019-03-15T08:58:57.572Z,11.60
2019-03-15T09:01:26.084Z,11.60
2019-03-15T09:03:54.483Z,11.70
2019-03-15T09:06:22.949Z,11.70
2019-03-15T09:08:51.328Z,11.70
2019-03-15T09:11:19.727Z,11.80
2019-03-15T09:13:49.383Z,11.90
2019-03-15T09:16:17.968Z,12.00
2019-03-15T09:18:46.462Z,12.00
2019-03-15T09:21:14.869Z,12.00
2019-03-15T09:23:43.280Z,12.10
2019-03-15T09:26:11.666Z,12.20
2019-03-15T09:28:40.071Z,12.30
2019-03-15T09:31:08.459Z,12.40
2019-03-15T09:33:38.237Z,12.50
2019-03-15T09:36:06.655Z,12.50
2019-03-15T09:38:35.034Z,12.50
2019-03-15T09:41:03.439Z,12.50
2019-03-15T09:43:31.830Z,12.50
2019-03-15T09:46:00.223Z,12.50
2019-03-15T09:48:28.611Z,12.40
2019-03-15T09:50:57.034Z,12.30
2019-03-15T09:53:25.432Z,12.30
2019-03-15T09:55:53.811Z,12.30
2019-03-15T09:58:22.226Z,12.30
2019-03-15T10:00:51.186Z,12.40
2019-03-15T10:03:22.450Z,12.40
2019-03-15T10:05:49.630Z,12.50
2019-03-15T10:08:18.004Z,12.60
2019-03-15T10:10:48.926Z,12.60
2019-03-15T10:13:16.529Z,12.70
2019-03-15T10:15:46.052Z,12.70
2019-03-15T10:18:14.516Z,12.70
2019-03-15T10:20:45.450Z,12.80
2019-03-15T10:23:12.957Z,12.80
2019-03-15T10:25:46.669Z,12.80
2019-03-15T10:28:11.499Z,12.90
2019-03-15T10:30:39.877Z,13.00
2019-03-15T10:33:08.281Z,13.10
2019-03-15T10:35:40.184Z,13.20
2019-03-15T10:38:08.600Z,13.30
2019-03-15T10:40:36.995Z,13.40
2019-03-15T10:43:05.423Z,13.50
2019-03-15T10:45:33.809Z,13.50
2019-03-15T10:48:02.247Z,13.60
2019-03-15T10:50:30.647Z,13.70
2019-03-15T10:52:59.045Z,13.70
2019-03-15T10:55:27.457Z,13.80
2019-03-15T10:57:55.859Z,13.80
2019-03-15T11:00:24.953Z,13.80
2019-03-15T11:02:53.438Z,13.70
2019-03-15T11:05:21.912Z,13.80
2019-03-15T11:07:50.313Z,13.80
2019-03-15T11:10:21.615Z,13.90
2019-03-15T11:12:50.400Z,14.00
2019-03-15T11:15:21.056Z,14.10
2019-03-15T11:17:51.112Z,14.10
2019-03-15T11:20:19.528Z,14.20
2019-03-15T11:22:47.941Z,14.20
2019-03-15T11:25:16.304Z,14.20
2019-03-15T11:27:44.713Z,14.20
2019-03-15T11:30:13.758Z,14.20
2019-03-15T11:32:42.135Z,14.10
2019-03-15T11:35:11.161Z,14.00
2019-03-15T11:37:39.495Z,14.00
2019-03-15T11:40:14.139Z,13.90
2019-03-15T11:42:42.868Z,14.10
2019-03-15T11:45:11.856Z,14.30
2019-03-15T11:48:01.326Z,14.40
2019-03-15T11:50:16.916Z,14.30
2019-03-15T11:52:45.331Z,14.10
2019-03-15T11:55:13.714Z,14.00
2019-03-15T11:57:42.102Z,14.00
2019-03-15T12:00:17.613Z,14.10
2019-03-15T12:02:46.009Z,14.10
2019-03-15T12:05:14.569Z,14.20
2019-03-15T12:07:43.032Z,14.30
2019-03-15T12:10:15.430Z,14.40
2019-03-15T12:12:44.279Z,14.30
2019-03-15T12:15:18.770Z,14.40
2019-03-15T12:17:47.171Z,14.60
2019-03-15T12:20:15.619Z,14.60
2019-03-15T12:22:44.001Z,14.70
2019-03-15T12:25:12.583Z,14.90
2019-03-15T12:27:40.994Z,15.00
2019-03-15T12:30:13.628Z,15.00
2019-03-15T12:32:42.049Z,15.10
2019-03-15T12:35:11.698Z,15.00
2019-03-15T12:37:40.103Z,14.90
2019-03-15T12:40:13.873Z,14.60
2019-03-15T12:42:42.289Z,14.30
2019-03-15T12:45:11.613Z,14.00
2019-03-15T12:47:40.036Z,13.80
2019-03-15T12:50:10.091Z,13.70
2019-03-15T12:52:47.098Z,13.40
2019-03-15T12:55:10.782Z,13.20
2019-03-15T12:57:39.242Z,13.20
2019-03-15T13:00:10.824Z,13.10
2019-03-15T13:02:39.226Z,13.00
2019-03-15T13:05:07.607Z,12.90
2019-03-15T13:07:37.751Z,12.90
2019-03-15T13:10:10.330Z,12.90
2019-03-15T13:12:38.927Z,13.20
2019-03-15T13:15:10.348Z,13.30
2019-03-15T13:17:38.753Z,13.40
2019-03-15T13:20:09.572Z,13.40
2019-03-15T13:22:37.946Z,13.20
2019-03-15T13:25:09.982Z,13.20
2019-03-15T13:27:38.363Z,13.20
2019-03-15T13:30:13.201Z,13.20
2019-03-15T13:32:41.603Z,13.20
2019-03-15T13:35:10.137Z,13.20
2019-03-15T13:37:38.506Z,13.10
2019-03-15T13:40:12.139Z,13.00
2019-03-15T13:42:40.526Z,12.90
2019-03-15T13:45:10.935Z,12.80
2019-03-15T13:47:42.035Z,12.70
2019-03-15T13:50:13.689Z,12.50
2019-03-15T13:52:42.091Z,12.40
2019-03-15T13:55:10.544Z,12.40
2019-03-15T13:57:38.957Z,12.50
2019-03-15T14:00:15.979Z,12.50
2019-03-15T14:02:44.384Z,12.40
2019-03-15T14:05:15.778Z,12.40
2019-03-15T14:07:44.185Z,12.40
2019-03-15T14:10:13.755Z,12.40
2019-03-15T14:12:42.139Z,12.30
2019-03-15T14:15:17.310Z,12.30
2019-03-15T14:17:45.684Z,12.20
2019-03-15T14:20:14.080Z,12.20
2019-03-15T14:22:42.535Z,12.20
2019-03-15T14:25:26.224Z,12.20
2019-03-15T14:27:54.623Z,12.10
2019-03-15T14:30:23.308Z,12.10
2019-03-15T14:32:51.723Z,12.10
2019-03-15T14:35:20.094Z,12.10
2019-03-15T14:37:48.600Z,12.20
2019-03-15T14:40:17.134Z,12.20
2019-03-15T14:42:45.525Z,12.20
2019-03-15T14:45:14.486Z,12.20
2019-03-15T14:47:42.867Z,12.20
2019-03-15T14:50:12.516Z,12.20
2019-03-15T14:52:40.945Z,12.10
2019-03-15T14:55:16.306Z,12.10
2019-03-15T14:57:52.755Z,12.00
2019-03-15T15:00:18.449Z,12.00
2019-03-15T15:02:46.904Z,12.00
2019-03-15T15:05:15.283Z,11.90
2019-03-15T15:07:44.056Z,11.90
2019-03-15T15:10:13.612Z,11.80
2019-03-15T15:12:41.999Z,11.70
2019-03-15T15:15:17.224Z,11.70
2019-03-15T15:17:45.616Z,11.70
2019-03-15T15:20:14.019Z,11.70
2019-03-15T15:22:42.471Z,11.60
2019-03-15T15:25:15.130Z,11.60
2019-03-15T15:27:44.189Z,11.70
2019-03-15T15:30:13.767Z,11.70
2019-03-15T15:32:42.208Z,11.70
2019-03-15T15:35:11.519Z,11.70
2019-03-15T15:37:39.948Z,11.60
2019-03-15T15:40:13.269Z,11.70
2019-03-15T15:42:41.748Z,11.70
2019-03-15T15:45:11.260Z,11.80
2019-03-15T15:47:39.688Z,11.80
2019-03-15T15:50:10.316Z,11.80
2019-03-15T15:52:38.731Z,11.80
2019-03-15T15:55:09.169Z,11.80
2019-03-15T15:57:37.550Z,11.90
2019-03-15T16:00:11.689Z,11.90
2019-03-15T16:02:40.081Z,11.90
2019-03-15T16:05:08.859Z,12.00
2019-03-15T16:07:37.367Z,12.00
2019-03-15T16:10:11.376Z,11.90
2019-03-15T16:12:39.783Z,11.90
2019-03-15T16:15:10.821Z,11.90
2019-03-15T16:17:39.243Z,11.80
2019-03-15T16:20:09.626Z,11.80
2019-03-15T16:22:38.044Z,11.70
2019-03-15T16:25:08.180Z,11.70
2019-03-15T16:27:36.626Z,11.60
2019-03-15T16:30:15.820Z,11.60
2019-03-15T16:32:44.232Z,11.50
2019-03-15T16:35:13.864Z,11.60
2019-03-15T16:37:42.241Z,11.50
2019-03-15T16:40:15.727Z,11.50
2019-03-15T16:42:44.109Z,11.50
2019-03-15T16:45:27.026Z,11.50
2019-03-15T16:47:55.432Z,11.40
2019-03-15T16:50:23.807Z,11.40
2019-03-15T16:52:52.220Z,11.40
2019-03-15T16:55:20.598Z,11.40
2019-03-15T16:57:49.044Z,11.40
2019-03-15T17:00:17.620Z,11.40
2019-03-15T17:02:45.986Z,11.30
2019-03-15T17:05:14.661Z,11.30
2019-03-15T17:07:43.048Z,11.20
2019-03-15T17:10:18.370Z,11.20
2019-03-15T17:12:46.782Z,11.10
2019-03-15T17:15:21.118Z,11.00
2019-03-15T17:17:49.526Z,10.90
2019-03-15T17:20:17.990Z,10.90
2019-03-15T17:22:46.418Z,10.90
2019-03-15T17:25:15.476Z,10.90
2019-03-15T17:27:43.883Z,10.90
2019-03-15T17:30:16.322Z,11.00
2019-03-15T17:32:44.736Z,11.00
2019-03-15T17:35:18.614Z,11.00
2019-03-15T17:37:47.193Z,11.00
2019-03-15T17:40:18.909Z,11.00
2019-03-15T17:42:47.288Z,10.90
2019-03-15T17:45:15.708Z,10.90
2019-03-15T17:47:44.118Z,10.90
2019-03-15T17:50:23.142Z,10.90
2019-03-15T17:52:51.594Z,10.90
2019-03-15T17:55:20.098Z,10.90
2019-03-15T17:57:48.476Z,10.80
2019-03-15T18:00:33.653Z,10.70
2019-03-15T18:03:02.011Z,10.60
2019-03-15T18:05:30.438Z,10.60
2019-03-15T18:07:58.795Z,10.50
2019-03-15T18:10:27.185Z,10.50
2019-03-15T18:12:55.720Z,10.50
2019-03-15T18:15:24.121Z,10.50
2019-03-15T18:17:52.518Z,10.60
2019-03-15T18:20:20.907Z,10.60
2019-03-15T18:22:49.302Z,10.60
2019-03-15T18:25:17.687Z,10.50
2019-03-15T18:27:46.096Z,10.60
2019-03-15T18:30:15.517Z,10.60
2019-03-15T18:32:43.920Z,10.50
2019-03-15T18:35:12.435Z,10.50
2019-03-15T18:37:40.852Z,10.40
2019-03-15T18:40:12.345Z,10.40
2019-03-15T18:42:40.820Z,10.50
2019-03-15T18:45:12.913Z,10.50
2019-03-15T18:47:42.595Z,10.60
2019-03-15T18:50:22.763Z,10.60
2019-03-15T18:52:51.302Z,10.50
2019-03-15T18:55:19.734Z,10.50
2019-03-15T18:57:48.128Z,10.40
2019-03-15T19:00:18.331Z,10.30
2019-03-15T19:02:48.107Z,10.20
2019-03-15T19:05:18.136Z,10.20
2019-03-15T19:07:46.565Z,10.30
2019-03-15T19:10:15.696Z,10.30
2019-03-15T19:12:44.900Z,10.20
2019-03-15T19:15:14.638Z,10.20
2019-03-15T19:17:43.015Z,10.20
2019-03-15T19:20:12.969Z,10.30
2019-03-15T19:22:41.344Z,10.20
2019-03-15T19:25:10.896Z,10.20
2019-03-15T19:27:39.350Z,10.20
2019-03-15T19:30:12.673Z,10.10
2019-03-15T19:32:41.151Z,10.10
2019-03-15T19:35:09.922Z,10.00
2019-03-15T19:37:38.391Z,10.00
2019-03-15T19:40:09.985Z,10.20
2019-03-15T19:42:38.385Z,10.20
2019-03-15T19:45:10.061Z,10.40
2019-03-15T19:47:39.777Z,10.30
2019-03-15T19:50:11.257Z,10.20
2019-03-15T19:52:39.743Z,10.10
2019-03-15T19:55:12.623Z,10.00
2019-03-15T19:57:41.031Z,10.10
2019-03-15T20:00:17.252Z,10.10
2019-03-15T20:02:45.632Z,10.10
2019-03-15T20:05:14.016Z,10.00
2019-03-15T20:07:42.682Z,10.00
2019-03-15T20:10:16.777Z,10.00
2019-03-15T20:12:45.599Z,9.90
2019-03-15T20:15:16.215Z,9.90
2019-03-15T20:17:44.584Z,10.00
2019-03-15T20:20:14.044Z,10.00
2019-03-15T20:22:42.434Z,10.00
2019-03-15T20:25:15.451Z,10.00
2019-03-15T20:27:43.848Z,10.00
2019-03-15T20:30:25.673Z,10.00
2019-03-15T20:32:49.881Z,10.00
2019-03-15T20:35:18.260Z,10.00
2019-03-15T20:37:46.670Z,10.00
2019-03-15T20:40:15.059Z,10.10
2019-03-15T20:42:43.468Z,10.10
2019-03-15T20:45:17.132Z,10.10
2019-03-15T20:47:45.512Z,10.10
2019-03-15T20:50:14.096Z,10.10
2019-03-15T20:52:42.478Z,10.10
2019-03-15T20:55:10.960Z,10.10
2019-03-15T20:57:39.372Z,10.20
2019-03-15T21:00:17.860Z,10.10
2019-03-15T21:02:46.366Z,10.20
2019-03-15T21:05:20.842Z,10.20
2019-03-15T21:07:49.251Z,10.20
2019-03-15T21:10:18.167Z,10.20
2019-03-15T21:12:46.585Z,10.20
2019-03-15T21:15:15.914Z,10.20
2019-03-15T21:17:44.287Z,10.20
2019-03-15T21:20:16.873Z,10.20
2019-03-15T21:22:45.300Z,10.20
2019-03-15T21:25:13.687Z,10.20
2019-03-15T21:27:52.984Z,10.20
2019-03-15T21:30:25.477Z,10.20
2019-03-15T21:32:53.873Z,10.20
2019-03-15T21:35:22.271Z,10.20
2019-03-15T21:37:52.303Z,10.20
2019-03-15T21:40:23.603Z,10.20
2019-03-15T21:42:51.985Z,10.10
2019-03-15T21:45:20.396Z,10.10
2019-03-15T21:47:48.829Z,10.10
2019-03-15T21:50:23.455Z,10.20
2019-03-15T21:52:52.366Z,10.10
2019-03-15T21:55:20.791Z,10.10
2019-03-15T21:57:49.197Z,10.10
2019-03-15T22:00:18.741Z,10.10
2019-03-15T22:02:47.141Z,10.10
2019-03-15T22:05:15.527Z,10.20
2019-03-15T22:07:44.832Z,10.10
2019-03-15T22:10:16.790Z,10.20
2019-03-15T22:12:45.164Z,10.10
2019-03-15T22:15:13.721Z,10.10
2019-03-15T22:17:42.181Z,10.10
2019-03-15T22:20:16.217Z,10.20
2019-03-15T22:22:44.588Z,10.20
2019-03-15T22:25:13.025Z,10.20
2019-03-15T22:27:41.383Z,10.20
2019-03-15T22:30:14.061Z,10.20
2019-03-15T22:32:42.467Z,10.20
2019-03-15T22:35:10.921Z,10.30
2019-03-15T22:37:39.349Z,10.30
2019-03-15T22:40:10.986Z,10.30
2019-03-15T22:42:39.402Z,10.20
2019-03-15T22:45:10.458Z,10.20
2019-03-15T22:47:38.876Z,10.20
2019-03-15T22:50:08.795Z,10.30
2019-03-15T22:52:38.848Z,10.20
2019-03-15T22:55:08.610Z,10.30
2019-03-15T22:57:36.989Z,10.30
2019-03-15T23:00:15.792Z,10.20
2019-03-15T23:02:44.355Z,10.20
2019-03-15T23:05:12.821Z,10.20
2019-03-15T23:07:41.230Z,10.30
2019-03-15T23:10:12.008Z,10.20
2019-03-15T23:12:40.420Z,10.30
2019-03-15T23:15:10.211Z,10.30
2019-03-15T23:17:38.582Z,10.20
2019-03-15T23:20:15.960Z,10.20
2019-03-15T23:22:44.344Z,10.20
2019-03-15T23:25:12.737Z,10.20
2019-03-15T23:27:41.117Z,10.20
2019-03-15T23:30:17.029Z,10.20
2019-03-15T23:32:45.403Z,10.20
2019-03-15T23:35:13.819Z,10.20
2019-03-15T23:37:42.205Z,10.20
2019-03-15T23:40:12.075Z,10.20
2019-03-15T23:42:40.463Z,10.20
2019-03-15T23:45:10.106Z,10.20
2019-03-15T23:47:38.532Z,10.20
2019-03-15T23:50:10.236Z,10.20
2019-03-15T23:52:38.640Z,10.20
2019-03-15T23:55:07.034Z,10.20
2019-03-15T23:57:35.498Z,10.20
